createdAt,value
2018-08-11T00:01:50.607Z,18.36
2018-08-11T00:02:50.596Z,18.33
2018-08-11T00:04:43.508Z,18.44
2018-08-11T00:05:43.530Z,18.47
2018-08-11T00:07:36.482Z,18.54
2018-08-11T00:08:36.462Z,18.58
2018-08-11T00:10:29.371Z,18.62
2018-08-11T00:11:29.393Z,18.58
2018-08-11T00:13:22.321Z,18.73
2018-08-11T00:14:22.331Z,18.69
2018-08-11T00:16:15.265Z,18.65
2018-08-11T00:17:15.259Z,18.72
2018-08-11T00:19:08.184Z,18.72
2018-08-11T00:20:08.193Z,18.75
2018-08-11T00:22:01.124Z,18.87
2018-08-11T00:23:01.125Z,18.80
2018-08-11T00:24:54.072Z,18.72
2018-08-11T00:25:54.119Z,18.78
2018-08-11T00:27:47.091Z,18.78
2018-08-11T00:28:47.055Z,18.80
2018-08-11T00:30:39.958Z,18.88
2018-08-11T00:31:39.949Z,18.84
2018-08-11T00:33:32.899Z,18.94
2018-08-11T00:34:32.890Z,18.88
2018-08-11T00:36:25.845Z,18.91
2018-08-11T00:37:25.792Z,18.88
2018-08-11T00:39:18.839Z,18.91
2018-08-11T00:40:18.865Z,18.94
2018-08-11T00:42:11.793Z,18.99
2018-08-11T00:43:11.797Z,18.92
2018-08-11T00:45:04.708Z,18.85
2018-08-11T00:46:04.727Z,18.84
2018-08-11T00:47:57.669Z,18.88
2018-08-11T00:48:57.670Z,18.84
2018-08-11T00:50:50.585Z,18.91
2018-08-11T00:51:50.613Z,18.87
2018-08-11T00:53:43.540Z,18.88
2018-08-11T00:54:43.543Z,18.91
2018-08-11T00:56:36.471Z,18.92
2018-08-11T00:57:36.474Z,18.95
2018-08-11T00:59:29.387Z,18.99
2018-08-11T01:00:29.411Z,19.02
2018-08-11T01:02:22.379Z,18.95
2018-08-11T01:03:22.342Z,19.02
2018-08-11T01:05:15.256Z,18.92
2018-08-11T01:06:15.288Z,18.95
2018-08-11T01:08:08.211Z,18.95
2018-08-11T01:09:08.214Z,19.00
2018-08-11T01:11:01.381Z,19.07
2018-08-11T01:12:01.350Z,19.04
2018-08-11T01:13:54.280Z,19.06
2018-08-11T01:14:54.283Z,19.08
2018-08-11T01:16:47.209Z,19.08
2018-08-11T01:17:47.211Z,19.08
2018-08-11T01:19:40.128Z,19.02
2018-08-11T01:20:40.154Z,19.00
2018-08-11T01:22:33.081Z,18.95
2018-08-11T01:23:33.086Z,19.07
2018-08-11T01:25:25.995Z,18.98
2018-08-11T01:26:26.017Z,18.98
2018-08-11T01:28:18.947Z,19.11
2018-08-11T01:29:18.950Z,19.14
2018-08-11T01:31:11.872Z,19.18
2018-08-11T01:32:11.886Z,19.16
2018-08-11T01:34:04.823Z,19.31
2018-08-11T01:35:04.823Z,19.26
2018-08-11T01:36:57.753Z,19.26
2018-08-11T01:37:57.753Z,19.25
2018-08-11T01:39:50.661Z,19.22
2018-08-11T01:40:50.684Z,19.25
2018-08-11T01:42:43.619Z,19.21
2018-08-11T01:43:43.623Z,19.29
2018-08-11T01:45:36.535Z,19.23
2018-08-11T01:46:36.554Z,19.21
2018-08-11T01:48:29.485Z,19.22
2018-08-11T01:49:29.489Z,19.19
2018-08-11T01:51:22.397Z,19.14
2018-08-11T01:52:22.420Z,19.14
2018-08-11T01:54:15.352Z,19.06
2018-08-11T01:55:15.355Z,18.92
2018-08-11T01:57:08.284Z,19.10
2018-08-11T01:58:08.285Z,19.06
2018-08-11T02:00:01.222Z,19.16
2018-08-11T02:01:01.221Z,19.16
2018-08-11T02:02:54.173Z,19.08
2018-08-11T02:03:54.158Z,19.04
2018-08-11T02:05:47.081Z,19.08
2018-08-11T02:06:47.097Z,19.04
2018-08-11T02:08:40.049Z,18.94
2018-08-11T02:09:40.037Z,18.84
2018-08-11T02:11:32.956Z,18.76
2018-08-11T02:12:32.967Z,18.58
2018-08-11T02:14:25.900Z,18.44
2018-08-11T02:15:25.902Z,18.27
2018-08-11T02:17:18.962Z,18.21
2018-08-11T02:18:18.983Z,18.10
2018-08-11T02:20:11.934Z,17.95
2018-08-11T02:21:11.938Z,17.82
2018-08-11T02:23:04.869Z,17.72
2018-08-11T02:24:04.872Z,17.72
2018-08-11T02:25:57.782Z,17.77
2018-08-11T02:26:57.803Z,17.78
2018-08-11T02:28:50.735Z,17.71
2018-08-11T02:29:50.737Z,17.64
2018-08-11T02:31:43.648Z,17.51
2018-08-11T02:32:43.667Z,17.30
2018-08-11T02:34:36.610Z,17.28
2018-08-11T02:35:36.610Z,17.18
2018-08-11T02:37:29.517Z,17.22
2018-08-11T02:38:29.539Z,17.15
2018-08-11T02:40:22.468Z,17.19
2018-08-11T02:41:22.472Z,17.15
2018-08-11T02:43:15.401Z,17.16
2018-08-11T02:44:15.404Z,17.21
2018-08-11T02:46:08.309Z,17.16
2018-08-11T02:47:08.330Z,17.11
2018-08-11T02:49:01.271Z,17.12
2018-08-11T02:50:01.275Z,17.11
2018-08-11T02:51:54.624Z,17.12
2018-08-11T02:52:54.632Z,17.15
2018-08-11T02:54:47.566Z,17.01
2018-08-11T02:55:47.565Z,17.03
2018-08-11T02:57:40.477Z,16.91
2018-08-11T02:58:40.493Z,16.78
2018-08-11T03:00:33.422Z,16.63
2018-08-11T03:01:33.421Z,16.60
2018-08-11T03:03:26.349Z,16.50
2018-08-11T03:04:26.352Z,16.45
2018-08-11T03:06:19.256Z,16.48
2018-08-11T03:07:19.279Z,16.39
2018-08-11T03:09:12.208Z,16.49
2018-08-11T03:10:12.219Z,16.41
2018-08-11T03:12:05.123Z,16.42
2018-08-11T03:13:05.151Z,16.41
2018-08-11T03:14:58.073Z,16.45
2018-08-11T03:15:58.078Z,16.39
2018-08-11T03:17:50.984Z,16.39
2018-08-11T03:18:51.003Z,16.42
2018-08-11T03:20:43.938Z,16.41
2018-08-11T03:21:43.936Z,16.45
2018-08-11T03:23:37.033Z,16.41
2018-08-11T03:24:37.029Z,16.41
2018-08-11T03:26:29.955Z,16.34
2018-08-11T03:27:29.961Z,16.34
2018-08-11T03:29:23.882Z,16.31
2018-08-11T03:30:23.881Z,16.15
2018-08-11T03:32:16.797Z,16.24
2018-08-11T03:33:16.809Z,16.20
2018-08-11T03:35:09.738Z,16.23
2018-08-11T03:36:09.762Z,16.21
2018-08-11T03:38:02.643Z,16.17
2018-08-11T03:39:02.664Z,16.20
2018-08-11T03:40:55.590Z,16.17
2018-08-11T03:41:55.592Z,16.15
2018-08-11T03:43:48.573Z,16.21
2018-08-11T03:44:48.519Z,16.17
2018-08-11T03:46:41.428Z,16.09
2018-08-11T03:47:41.451Z,16.11
2018-08-11T03:49:34.387Z,16.09
2018-08-11T03:50:34.390Z,16.07
2018-08-11T03:52:27.371Z,16.04
2018-08-11T03:53:27.326Z,16.04
2018-08-11T03:55:20.249Z,15.94
2018-08-11T03:56:20.252Z,16.04
2018-08-11T03:58:13.156Z,16.01
2018-08-11T03:59:13.177Z,16.01
2018-08-11T04:01:06.103Z,15.97
2018-08-11T04:02:06.113Z,15.97
2018-08-11T04:03:59.033Z,15.97
2018-08-11T04:04:59.035Z,15.93
2018-08-11T04:06:51.946Z,15.75
2018-08-11T04:07:51.968Z,15.83
2018-08-11T04:09:44.895Z,15.90
2018-08-11T04:10:44.893Z,15.86
2018-08-11T04:12:37.801Z,15.86
2018-08-11T04:13:37.821Z,15.87
2018-08-11T04:15:30.754Z,15.92
2018-08-11T04:16:30.756Z,15.92
2018-08-11T04:18:23.660Z,15.82
2018-08-11T04:19:23.682Z,15.83
2018-08-11T04:21:16.611Z,15.72
2018-08-11T04:22:16.690Z,15.82
2018-08-11T04:24:09.559Z,15.80
2018-08-11T04:25:09.539Z,15.68
2018-08-11T04:27:02.479Z,15.65
2018-08-11T04:28:02.481Z,15.78
2018-08-11T04:29:55.420Z,15.65
2018-08-11T04:30:55.411Z,15.56
2018-08-11T04:32:48.328Z,15.60
2018-08-11T04:33:48.337Z,15.59
2018-08-11T04:35:41.308Z,15.64
2018-08-11T04:36:41.289Z,15.62
2018-08-11T04:38:34.181Z,15.60
2018-08-11T04:39:34.204Z,15.54
2018-08-11T04:41:27.138Z,15.56
2018-08-11T04:42:27.137Z,15.56
2018-08-11T04:44:20.061Z,15.54
2018-08-11T04:45:20.060Z,15.56
2018-08-11T04:47:12.964Z,15.56
2018-08-11T04:48:12.985Z,15.54
2018-08-11T04:50:05.916Z,15.51
2018-08-11T04:51:05.918Z,15.57
2018-08-11T04:52:58.825Z,15.51
2018-08-11T04:53:58.847Z,15.65
2018-08-11T04:55:51.774Z,15.90
2018-08-11T04:56:51.774Z,16.08
2018-08-11T04:58:44.679Z,16.30
2018-08-11T04:59:44.700Z,16.39
2018-08-11T05:01:37.630Z,16.49
2018-08-11T05:02:37.630Z,16.46
2018-08-11T05:04:30.562Z,16.45
2018-08-11T05:05:30.562Z,16.57
2018-08-11T05:07:23.470Z,16.70
2018-08-11T05:08:23.495Z,16.66
2018-08-11T05:10:16.421Z,16.76
2018-08-11T05:11:16.420Z,16.66
2018-08-11T05:13:09.326Z,16.68
2018-08-11T05:14:09.349Z,16.61
2018-08-11T05:16:02.280Z,16.64
2018-08-11T05:17:02.277Z,16.63
2018-08-11T05:18:55.182Z,16.63
2018-08-11T05:19:55.246Z,16.79
2018-08-11T05:21:48.136Z,16.71
2018-08-11T05:22:48.137Z,16.81
2018-08-11T05:24:41.065Z,16.86
2018-08-11T05:25:41.067Z,16.89
2018-08-11T05:27:33.976Z,16.85
2018-08-11T05:28:33.997Z,16.86
2018-08-11T05:30:26.923Z,16.93
2018-08-11T05:31:26.926Z,16.93
2018-08-11T05:33:19.939Z,16.85
2018-08-11T05:34:19.856Z,16.93
2018-08-11T05:36:12.787Z,16.88
2018-08-11T05:37:12.790Z,16.85
2018-08-11T05:39:05.696Z,17.08
2018-08-11T05:40:05.717Z,17.04
2018-08-11T05:41:58.650Z,17.06
2018-08-11T05:42:58.659Z,17.01
2018-08-11T05:44:51.593Z,17.08
2018-08-11T05:45:51.594Z,17.11
2018-08-11T05:47:44.500Z,17.15
2018-08-11T05:48:44.519Z,17.18
2018-08-11T05:50:37.453Z,17.21
2018-08-11T05:51:37.459Z,17.16
2018-08-11T05:53:30.369Z,17.22
2018-08-11T05:54:30.397Z,17.18
2018-08-11T05:56:23.324Z,17.23
2018-08-11T05:57:23.327Z,17.23
2018-08-11T05:59:16.235Z,17.31
2018-08-11T06:00:16.258Z,17.48
2018-08-11T06:02:09.184Z,17.62
2018-08-11T06:03:09.189Z,17.59
2018-08-11T06:05:02.123Z,17.70
2018-08-11T06:06:02.124Z,17.77
2018-08-11T06:07:55.044Z,17.70
2018-08-11T06:08:55.060Z,17.79
2018-08-11T06:10:48.001Z,17.74
2018-08-11T06:11:48.001Z,17.82
2018-08-11T06:13:40.906Z,17.74
2018-08-11T06:14:40.928Z,17.66
2018-08-11T06:16:33.864Z,17.75
2018-08-11T06:17:33.862Z,17.82
2018-08-11T06:19:26.774Z,17.90
2018-08-11T06:20:26.798Z,17.96
2018-08-11T06:22:19.731Z,18.08
2018-08-11T06:23:19.733Z,17.97
2018-08-11T06:25:12.664Z,18.08
2018-08-11T06:26:12.668Z,18.21
2018-08-11T06:28:05.582Z,18.05
2018-08-11T06:29:05.610Z,18.18
2018-08-11T06:30:58.536Z,18.25
2018-08-11T06:31:58.617Z,18.26
2018-08-11T06:33:51.451Z,18.23
2018-08-11T06:34:51.476Z,18.23
2018-08-11T06:36:44.406Z,18.27
2018-08-11T06:37:44.411Z,18.21
2018-08-11T06:39:37.373Z,18.27
2018-08-11T06:40:37.472Z,18.18
2018-08-11T06:42:30.336Z,18.21
2018-08-11T06:43:30.340Z,18.23
2018-08-11T06:45:23.267Z,18.14
2018-08-11T06:46:23.267Z,18.00
2018-08-11T06:48:17.174Z,18.12
2018-08-11T06:49:17.200Z,18.05
2018-08-11T06:51:10.136Z,18.11
2018-08-11T06:52:10.133Z,18.21
2018-08-11T06:54:03.050Z,18.47
2018-08-11T06:55:03.081Z,18.76
2018-08-11T06:56:56.005Z,19.28
2018-08-11T06:57:56.013Z,19.44
2018-08-11T06:59:48.925Z,19.74
2018-08-11T07:00:48.955Z,19.73
2018-08-11T07:02:41.887Z,20.13
2018-08-11T07:03:41.896Z,20.24
2018-08-11T07:05:34.839Z,20.51
2018-08-11T07:06:34.909Z,20.69
2018-08-11T07:08:27.765Z,20.80
2018-08-11T07:09:27.798Z,20.72
2018-08-11T07:11:20.739Z,20.82
2018-08-11T07:12:20.760Z,20.72
2018-08-11T07:14:13.664Z,20.70
2018-08-11T07:15:13.739Z,20.59
2018-08-11T07:17:06.635Z,20.57
2018-08-11T07:18:06.640Z,20.72
2018-08-11T07:19:59.560Z,20.77
2018-08-11T07:20:59.587Z,20.91
2018-08-11T07:22:52.519Z,20.70
2018-08-11T07:23:52.536Z,20.69
2018-08-11T07:25:45.545Z,20.72
2018-08-11T07:26:45.466Z,20.72
2018-08-11T07:28:38.387Z,20.69
2018-08-11T07:29:38.413Z,20.39
2018-08-11T07:31:31.347Z,20.29
2018-08-11T07:32:31.357Z,20.26
2018-08-11T07:34:24.262Z,20.29
2018-08-11T07:35:24.288Z,20.28
2018-08-11T07:37:17.240Z,20.32
2018-08-11T07:38:17.237Z,20.20
2018-08-11T07:40:10.159Z,20.17
2018-08-11T07:41:10.185Z,20.13
2018-08-11T07:43:03.127Z,19.95
2018-08-11T07:44:03.127Z,19.94
2018-08-11T07:45:56.041Z,19.66
2018-08-11T07:46:56.070Z,19.66
2018-08-11T07:48:49.001Z,19.63
2018-08-11T07:49:49.004Z,19.71
2018-08-11T07:51:41.939Z,19.73
2018-08-11T07:52:41.948Z,19.66
2018-08-11T07:54:34.856Z,19.88
2018-08-11T07:55:34.881Z,19.81
2018-08-11T07:57:27.824Z,19.80
2018-08-11T07:58:27.826Z,19.86
2018-08-11T08:00:20.736Z,20.03
2018-08-11T08:01:20.785Z,20.16
2018-08-11T08:03:13.880Z,20.29
2018-08-11T08:04:13.889Z,20.29
2018-08-11T08:06:06.799Z,20.23
2018-08-11T08:07:06.822Z,20.18
2018-08-11T08:08:59.756Z,20.02
2018-08-11T08:09:59.757Z,20.13
2018-08-11T08:11:52.695Z,20.16
2018-08-11T08:12:52.702Z,20.20
2018-08-11T08:14:45.611Z,20.31
2018-08-11T08:15:45.633Z,20.36
2018-08-11T08:17:39.563Z,20.26
2018-08-11T08:18:39.566Z,20.28
2018-08-11T08:20:32.481Z,20.29
2018-08-11T08:21:32.505Z,20.26
2018-08-11T08:23:25.439Z,20.31
2018-08-11T08:24:25.444Z,20.38
2018-08-11T08:26:18.504Z,20.59
2018-08-11T08:27:18.378Z,20.76
2018-08-11T08:29:11.328Z,20.85
2018-08-11T08:30:11.323Z,20.91
2018-08-11T08:32:04.752Z,20.95
2018-08-11T08:33:04.758Z,20.82
2018-08-11T08:34:57.887Z,20.80
2018-08-11T08:35:57.915Z,20.59
2018-08-11T08:37:50.848Z,20.39
2018-08-11T08:38:50.851Z,20.39
2018-08-11T08:40:43.769Z,20.57
2018-08-11T08:41:43.841Z,20.77
2018-08-11T08:43:36.728Z,21.13
2018-08-11T08:44:36.737Z,21.07
2018-08-11T08:46:29.650Z,20.99
2018-08-11T08:47:29.687Z,20.89
2018-08-11T08:49:22.611Z,20.74
2018-08-11T08:50:22.624Z,20.69
2018-08-11T08:52:15.557Z,20.79
2018-08-11T08:53:15.605Z,20.87
2018-08-11T08:55:08.471Z,20.94
2018-08-11T08:56:08.496Z,21.06
2018-08-11T08:58:01.430Z,21.17
2018-08-11T08:59:01.439Z,21.13
2018-08-11T09:00:54.351Z,21.09
2018-08-11T09:01:54.383Z,21.21
2018-08-11T09:03:47.325Z,21.24
2018-08-11T09:04:47.333Z,21.03
2018-08-11T09:06:40.245Z,21.25
2018-08-11T09:07:40.278Z,21.27
2018-08-11T09:09:33.217Z,21.27
2018-08-11T09:10:33.217Z,21.29
2018-08-11T09:12:26.152Z,21.42
2018-08-11T09:13:26.161Z,21.46
2018-08-11T09:15:19.081Z,21.44
2018-08-11T09:16:19.102Z,21.54
2018-08-11T09:18:12.039Z,21.65
2018-08-11T09:19:12.045Z,21.72
2018-08-11T09:21:04.957Z,21.84
2018-08-11T09:22:04.986Z,21.80
2018-08-11T09:23:57.918Z,21.77
2018-08-11T09:24:57.929Z,21.59
2018-08-11T09:26:50.842Z,21.65
2018-08-11T09:27:50.870Z,21.53
2018-08-11T09:29:43.807Z,21.80
2018-08-11T09:30:43.814Z,21.80
2018-08-11T09:32:36.750Z,22.00
2018-08-11T09:33:36.759Z,21.98
2018-08-11T09:35:29.672Z,21.98
2018-08-11T09:36:29.702Z,21.82
2018-08-11T09:38:22.685Z,21.84
2018-08-11T09:39:22.643Z,21.71
2018-08-11T09:41:15.556Z,21.53
2018-08-11T09:42:15.586Z,21.46
2018-08-11T09:44:08.518Z,21.16
2018-08-11T09:45:08.523Z,21.13
2018-08-11T09:47:01.439Z,20.97
2018-08-11T09:48:01.470Z,20.98
2018-08-11T09:49:54.401Z,20.92
2018-08-11T09:50:54.403Z,20.91
2018-08-11T09:52:47.340Z,21.12
2018-08-11T09:53:47.342Z,21.21
2018-08-11T09:55:40.258Z,21.44
2018-08-11T09:56:40.281Z,21.32
2018-08-11T09:58:33.229Z,21.47
2018-08-11T09:59:33.229Z,21.65
2018-08-11T10:01:26.141Z,22.02
2018-08-11T10:02:26.169Z,22.25
2018-08-11T10:04:19.113Z,22.46
2018-08-11T10:05:19.112Z,22.61
2018-08-11T10:07:12.028Z,22.70
2018-08-11T10:08:12.058Z,22.68
2018-08-11T10:10:04.992Z,22.65
2018-08-11T10:11:05.003Z,22.49
2018-08-11T10:12:57.936Z,22.47
2018-08-11T10:13:57.944Z,22.46
2018-08-11T10:15:50.859Z,22.42
2018-08-11T10:16:50.889Z,22.42
2018-08-11T10:18:43.821Z,22.37
2018-08-11T10:19:43.824Z,22.33
2018-08-11T10:21:36.741Z,22.30
2018-08-11T10:22:36.771Z,22.46
2018-08-11T10:24:29.703Z,22.54
2018-08-11T10:25:29.712Z,22.65
2018-08-11T10:27:22.628Z,22.57
2018-08-11T10:28:22.655Z,22.47
2018-08-11T10:30:15.639Z,22.46
2018-08-11T10:31:15.593Z,22.33
2018-08-11T10:33:08.532Z,22.45
2018-08-11T10:34:08.540Z,22.43
2018-08-11T10:36:01.462Z,22.40
2018-08-11T10:37:01.484Z,22.40
2018-08-11T10:38:54.422Z,22.30
2018-08-11T10:39:54.447Z,22.28
2018-08-11T10:41:47.342Z,22.24
2018-08-11T10:42:47.370Z,22.17
2018-08-11T10:44:40.300Z,22.02
2018-08-11T10:45:40.311Z,22.12
2018-08-11T10:47:33.224Z,22.35
2018-08-11T10:48:33.253Z,22.51
2018-08-11T10:50:26.186Z,22.72
2018-08-11T10:51:26.194Z,22.80
2018-08-11T10:53:19.136Z,22.61
2018-08-11T10:54:19.139Z,22.45
2018-08-11T10:56:12.053Z,22.31
2018-08-11T10:57:12.084Z,22.30
2018-08-11T10:59:05.027Z,21.96
2018-08-11T11:00:05.041Z,21.91
2018-08-11T11:01:57.956Z,21.38
2018-08-11T11:02:57.978Z,21.38
2018-08-11T11:04:50.911Z,21.37
2018-08-11T11:05:50.920Z,21.56
2018-08-11T11:07:43.831Z,21.92
2018-08-11T11:08:43.860Z,21.98
2018-08-11T11:10:36.792Z,22.30
2018-08-11T11:11:36.795Z,22.43
2018-08-11T11:13:29.733Z,22.67
2018-08-11T11:14:29.735Z,22.70
2018-08-11T11:16:22.650Z,22.72
2018-08-11T11:17:22.674Z,22.82
2018-08-11T11:19:15.614Z,23.00
2018-08-11T11:20:15.619Z,23.02
2018-08-11T11:22:08.540Z,22.95
2018-08-11T11:23:08.560Z,22.92
2018-08-11T11:25:01.497Z,23.19
2018-08-11T11:26:01.500Z,23.39
2018-08-11T11:27:54.419Z,23.72
2018-08-11T11:28:54.447Z,23.68
2018-08-11T11:30:47.379Z,23.87
2018-08-11T11:31:47.389Z,23.87
2018-08-11T11:33:44.976Z,23.91
2018-08-11T11:34:40.333Z,23.88
2018-08-11T11:36:33.246Z,24.03
2018-08-11T11:37:33.277Z,23.79
2018-08-11T11:39:26.219Z,23.60
2018-08-11T11:40:26.220Z,23.53
2018-08-11T11:42:19.135Z,23.13
2018-08-11T11:43:19.190Z,23.20
2018-08-11T11:45:12.109Z,23.27
2018-08-11T11:46:12.112Z,23.25
2018-08-11T11:48:05.037Z,23.23
2018-08-11T11:49:05.061Z,23.09
2018-08-11T11:50:58.013Z,23.31
2018-08-11T11:51:58.063Z,23.33
2018-08-11T11:53:50.951Z,23.46
2018-08-11T11:54:50.961Z,23.31
2018-08-11T11:56:43.878Z,23.40
2018-08-11T11:57:43.903Z,23.57
2018-08-11T11:59:36.848Z,23.47
2018-08-11T12:00:36.852Z,23.27
2018-08-11T12:02:30.261Z,23.22
2018-08-11T12:03:30.290Z,23.20
2018-08-11T12:05:23.225Z,23.04
2018-08-11T12:06:23.233Z,23.05
2018-08-11T12:08:16.147Z,22.94
2018-08-11T12:09:16.178Z,22.92
2018-08-11T12:11:09.113Z,22.97
2018-08-11T12:12:09.126Z,22.97
2018-08-11T12:14:02.063Z,22.86
2018-08-11T12:15:02.072Z,22.73
2018-08-11T12:16:54.982Z,22.67
2018-08-11T12:17:55.007Z,22.54
2018-08-11T12:19:47.945Z,22.42
2018-08-11T12:20:47.953Z,22.49
2018-08-11T12:22:40.951Z,22.47
2018-08-11T12:23:40.895Z,22.47
2018-08-11T12:25:33.836Z,22.52
2018-08-11T12:26:33.842Z,22.52
2018-08-11T12:28:26.756Z,22.75
2018-08-11T12:29:26.786Z,22.83
2018-08-11T12:31:22.108Z,22.92
2018-08-11T12:32:19.727Z,23.05
2018-08-11T12:34:12.715Z,23.48
2018-08-11T12:35:12.674Z,23.60
2018-08-11T12:37:05.616Z,23.78
2018-08-11T12:38:05.644Z,23.79
2018-08-11T12:39:58.590Z,23.68
2018-08-11T12:40:58.600Z,23.65
2018-08-11T12:42:51.506Z,23.63
2018-08-11T12:43:51.535Z,23.70
2018-08-11T12:45:44.506Z,23.72
2018-08-11T12:46:44.480Z,23.68
2018-08-11T12:48:37.391Z,23.66
2018-08-11T12:49:37.418Z,23.61
2018-08-11T12:51:30.356Z,23.53
2018-08-11T12:52:30.364Z,23.46
2018-08-11T12:54:23.337Z,23.63
2018-08-11T12:55:23.308Z,23.70
2018-08-11T12:57:16.231Z,23.90
2018-08-11T12:58:16.257Z,24.02
2018-08-11T13:00:09.195Z,24.20
2018-08-11T13:01:09.204Z,24.28
2018-08-11T13:03:02.121Z,24.49
2018-08-11T13:04:02.149Z,24.58
2018-08-11T13:05:55.097Z,24.46
2018-08-11T13:06:55.156Z,24.55
2018-08-11T13:08:48.019Z,24.78
2018-08-11T13:09:48.044Z,24.69
2018-08-11T13:11:41.030Z,24.42
2018-08-11T13:12:40.995Z,24.31
2018-08-11T13:14:33.934Z,24.20
2018-08-11T13:15:33.942Z,24.10
2018-08-11T13:17:26.856Z,24.03
2018-08-11T13:18:26.965Z,24.10
2018-08-11T13:20:19.829Z,24.37
2018-08-11T13:21:19.848Z,24.37
2018-08-11T13:23:12.753Z,24.27
2018-08-11T13:24:12.784Z,24.13
2018-08-11T13:26:05.720Z,24.13
2018-08-11T13:27:05.728Z,24.28
2018-08-11T13:28:58.645Z,24.42
2018-08-11T13:29:58.674Z,24.39
2018-08-11T13:31:51.610Z,24.55
2018-08-11T13:32:51.620Z,24.52
2018-08-11T13:34:44.566Z,24.42
2018-08-11T13:35:44.566Z,24.43
2018-08-11T13:37:37.481Z,24.42
2018-08-11T13:38:37.550Z,24.22
2018-08-11T13:40:30.444Z,24.20
2018-08-11T13:41:30.452Z,24.20
2018-08-11T13:43:23.376Z,23.73
2018-08-11T13:44:23.397Z,23.60
2018-08-11T13:46:16.340Z,23.87
2018-08-11T13:47:16.348Z,23.94
2018-08-11T13:49:09.267Z,23.98
2018-08-11T13:50:09.297Z,24.05
2018-08-11T13:52:02.240Z,24.16
2018-08-11T13:53:02.243Z,24.27
2018-08-11T13:54:55.159Z,24.43
2018-08-11T13:55:55.189Z,24.39
2018-08-11T13:57:48.128Z,24.35
2018-08-11T13:58:48.134Z,24.35
2018-08-11T14:00:41.071Z,24.52
2018-08-11T14:01:41.083Z,24.60
2018-08-11T14:03:34.001Z,24.83
2018-08-11T14:04:34.027Z,24.76
2018-08-11T14:06:26.963Z,24.85
2018-08-11T14:07:27.009Z,24.73
2018-08-11T14:09:19.889Z,24.69
2018-08-11T14:10:19.920Z,24.78
2018-08-11T14:12:12.865Z,24.77
2018-08-11T14:13:12.867Z,24.76
2018-08-11T14:15:05.877Z,24.58
2018-08-11T14:16:05.817Z,24.50
2018-08-11T14:17:58.759Z,24.55
2018-08-11T14:18:58.767Z,24.43
2018-08-11T14:20:51.718Z,24.43
2018-08-11T14:21:51.725Z,24.55
2018-08-11T14:23:44.642Z,24.71
2018-08-11T14:24:44.671Z,24.69
2018-08-11T14:26:37.608Z,24.58
2018-08-11T14:27:37.616Z,24.34
2018-08-11T14:29:30.531Z,24.53
2018-08-11T14:30:30.562Z,24.68
2018-08-11T14:32:23.506Z,24.87
2018-08-11T14:33:23.508Z,25.03
2018-08-11T14:35:16.427Z,25.14
2018-08-11T14:36:16.456Z,24.95
2018-08-11T14:38:09.391Z,24.85
2018-08-11T14:39:09.402Z,24.95
2018-08-11T14:41:02.346Z,25.05
2018-08-11T14:42:02.345Z,25.17
2018-08-11T14:43:55.264Z,25.28
2018-08-11T14:44:55.295Z,25.23
2018-08-11T14:46:49.239Z,25.18
2018-08-11T14:47:49.262Z,25.27
2018-08-11T14:49:42.165Z,24.91
2018-08-11T14:50:42.273Z,25.00
2018-08-11T14:52:35.133Z,24.77
2018-08-11T14:53:35.142Z,24.84
2018-08-11T14:55:28.059Z,24.90
2018-08-11T14:56:28.090Z,24.96
2018-08-11T14:58:21.034Z,24.99
2018-08-11T14:59:21.035Z,24.95
2018-08-11T15:01:13.983Z,24.60
2018-08-11T15:02:13.988Z,24.55
2018-08-11T15:04:06.911Z,24.37
2018-08-11T15:05:06.935Z,24.58
2018-08-11T15:06:59.878Z,24.53
2018-08-11T15:07:59.883Z,24.55
2018-08-11T15:09:52.846Z,24.55
2018-08-11T15:10:52.833Z,24.62
2018-08-11T15:12:45.778Z,24.58
2018-08-11T15:13:45.778Z,24.58
2018-08-11T15:15:38.920Z,24.49
2018-08-11T15:16:38.949Z,24.53
2018-08-11T15:18:31.905Z,24.55
2018-08-11T15:19:31.914Z,24.47
2018-08-11T15:21:26.081Z,24.42
2018-08-11T15:22:26.086Z,24.28
2018-08-11T15:24:19.221Z,24.27
2018-08-11T15:25:19.247Z,24.25
2018-08-11T15:27:12.194Z,24.08
2018-08-11T15:28:12.194Z,24.08
2018-08-11T15:30:05.114Z,24.02
2018-08-11T15:31:05.146Z,24.03
2018-08-11T15:32:58.075Z,24.20
2018-08-11T15:33:58.086Z,24.32
2018-08-11T15:35:51.007Z,24.37
2018-08-11T15:36:51.032Z,24.43
2018-08-11T15:38:43.985Z,24.58
2018-08-11T15:39:43.978Z,24.60
2018-08-11T15:41:36.913Z,24.58
2018-08-11T15:42:36.923Z,24.68
2018-08-11T15:44:29.845Z,24.61
2018-08-11T15:47:22.799Z,24.77
2018-08-11T15:48:22.808Z,24.76
2018-08-11T15:50:15.727Z,24.80
2018-08-11T15:51:15.754Z,24.76
2018-08-11T15:53:08.701Z,24.88
2018-08-11T15:54:08.761Z,24.98
2018-08-11T15:56:02.169Z,25.06
2018-08-11T15:57:01.800Z,24.93
2018-08-11T15:58:54.598Z,24.98
2018-08-11T15:59:54.610Z,25.10
2018-08-11T16:01:47.545Z,25.13
2018-08-11T16:02:47.551Z,25.21
2018-08-11T16:04:40.467Z,25.20
2018-08-11T16:05:40.497Z,25.30
2018-08-11T16:07:33.440Z,25.32
2018-08-11T16:08:33.440Z,25.28
2018-08-11T16:10:26.360Z,25.18
2018-08-11T16:11:26.388Z,25.03
2018-08-11T16:13:19.334Z,24.71
2018-08-11T16:14:19.338Z,24.65
2018-08-11T16:16:12.253Z,24.52
2018-08-11T16:17:12.284Z,24.47
2018-08-11T16:19:05.222Z,24.40
2018-08-11T16:20:05.228Z,24.22
2018-08-11T16:21:58.172Z,24.10
2018-08-11T16:22:58.178Z,23.93
2018-08-11T16:24:51.088Z,24.05
2018-08-11T16:25:51.118Z,23.98
2018-08-11T16:27:44.054Z,23.72
2018-08-11T16:28:44.062Z,23.79
2018-08-11T16:30:36.976Z,23.76
2018-08-11T16:31:37.006Z,23.73
2018-08-11T16:33:30.123Z,23.80
2018-08-11T16:34:30.128Z,23.83
2018-08-11T16:36:23.046Z,24.02
2018-08-11T16:37:23.076Z,24.12
2018-08-11T16:39:16.013Z,24.18
2018-08-11T16:40:16.020Z,24.31
2018-08-11T16:42:08.956Z,24.37
2018-08-11T16:43:08.963Z,24.39
2018-08-11T16:45:01.894Z,24.43
2018-08-11T16:46:01.921Z,24.47
2018-08-11T16:47:54.929Z,24.37
2018-08-11T16:48:54.865Z,24.35
2018-08-11T16:50:47.790Z,24.21
2018-08-11T16:51:47.818Z,24.20
2018-08-11T16:53:40.758Z,24.15
2018-08-11T16:54:40.765Z,24.15
2018-08-11T16:56:33.698Z,24.00
2018-08-11T16:57:33.708Z,23.98
2018-08-11T16:59:26.689Z,24.09
2018-08-11T17:00:26.652Z,24.06
2018-08-11T17:02:19.586Z,24.13
2018-08-11T17:03:19.597Z,24.22
2018-08-11T17:05:12.525Z,24.18
2018-08-11T17:06:12.546Z,23.98
2018-08-11T17:08:05.477Z,24.02
2018-08-11T17:09:05.486Z,23.98
2018-08-11T17:10:58.414Z,23.78
2018-08-11T17:11:58.441Z,23.70
2018-08-11T17:13:51.396Z,23.51
2018-08-11T17:14:51.498Z,23.58
2018-08-11T17:16:44.302Z,23.53
2018-08-11T17:17:44.330Z,23.51
2018-08-11T17:19:37.274Z,23.50
2018-08-11T17:20:37.300Z,23.47
2018-08-11T17:22:30.214Z,23.40
2018-08-11T17:23:30.221Z,23.48
2018-08-11T17:25:23.130Z,23.43
2018-08-11T17:26:23.163Z,23.54
2018-08-11T17:28:16.092Z,23.53
2018-08-11T17:29:16.097Z,23.48
2018-08-11T17:31:09.012Z,23.46
2018-08-11T17:32:09.055Z,23.39
2018-08-11T17:34:01.974Z,23.31
2018-08-11T17:35:01.985Z,23.39
2018-08-11T17:36:54.903Z,23.27
2018-08-11T17:37:54.929Z,23.15
2018-08-11T17:39:47.881Z,23.15
2018-08-11T17:40:47.876Z,23.07
2018-08-11T17:42:40.813Z,23.00
2018-08-11T17:43:40.816Z,23.00
2018-08-11T17:45:33.732Z,23.15
2018-08-11T17:46:33.760Z,23.15
2018-08-11T17:48:26.705Z,23.04
2018-08-11T17:49:26.704Z,23.05
2018-08-11T17:51:19.615Z,23.04
2018-08-11T17:52:19.644Z,23.00
2018-08-11T17:54:12.579Z,23.07
2018-08-11T17:55:12.585Z,22.98
2018-08-11T17:57:05.498Z,22.90
2018-08-11T17:58:05.521Z,22.90
2018-08-11T17:59:58.461Z,22.94
2018-08-11T18:00:58.469Z,22.91
2018-08-11T18:02:51.414Z,22.91
2018-08-11T18:03:51.416Z,22.88
2018-08-11T18:05:44.340Z,22.85
2018-08-11T18:06:44.363Z,22.79
2018-08-11T18:08:37.294Z,22.80
2018-08-11T18:09:37.299Z,22.83
2018-08-11T18:11:30.214Z,22.79
2018-08-11T18:12:30.245Z,22.80
2018-08-11T18:14:23.175Z,22.91
2018-08-11T18:15:23.185Z,22.94
2018-08-11T18:17:16.094Z,23.25
2018-08-11T18:18:16.118Z,23.15
2018-08-11T18:20:09.052Z,23.46
2018-08-11T18:21:09.066Z,23.58
2018-08-11T18:23:01.998Z,23.72
2018-08-11T18:24:02.004Z,23.63
2018-08-11T18:25:54.918Z,23.65
2018-08-11T18:26:54.945Z,23.63
2018-08-11T18:28:47.879Z,23.60
2018-08-11T18:29:47.889Z,23.33
2018-08-11T18:31:40.806Z,23.07
2018-08-11T18:32:40.830Z,22.91
2018-08-11T18:34:33.820Z,22.68
2018-08-11T18:35:33.778Z,22.57